Atlantis, Florida
Current Conditions -  °F | °C
As of 8:53 AM on Wednesday 22 Oct 2014 (Local Time) from KPBI Reporting Station
Broken Clouds Broken Clouds  
Wind Chill: 71°   Ceiling: 20000
Heat Index: 71°   Visibility: 10mi
Dew Point: 71°   Wind: 3mph
Humidity: 100%   Direction: 310°NW
Pressure: 29.97"   Gusts: NA
Location:  26.5758°N, 80.0835°W
Report Text: KPBI 221253Z 31003KT 10SM FEW020 SCT110 BKN200 22/22 A2997 RMK AO2 SLP146 CB DSNT E SE T02170217
Loading
Personal Weather Stations






























Interactive Weather Map
Tropical Storm Tracking
New forecast layout! Learn more

10-Day Weather Forecast

Advertisements
Track Severe Weather on mobile